Time;durP1;ratioP1;P1;durP2;ratioP2;P2;SDS_P1;SDS_P2;PMS_P1;PMS_P2;Temp;Humidity;BMP_temperature;BMP_pressure;BME280_temperature;BME280_humidity;BME280_pressure;Samples;Min_cycle;Max_cycle;Signal;HPM_P1;HPM_P2
2022/03/24 00:02:10;;;;;;;53.08;40.80;;;;;;;6.09;65.04;102805.00;5063655;28;20029;-65
2022/03/24 00:04:35;;;;;;;50.63;37.45;;;;;;;5.90;65.92;102801.34;5062914;28;20029;-65
2022/03/24 00:07:00;;;;;;;50.67;39.17;;;;;;;6.02;66.10;102809.00;5064647;28;20036;-65
2022/03/24 00:09:26;;;;;;;58.03;42.58;;;;;;;5.94;65.69;102810.28;5061947;28;20106;-65
2022/03/24 00:11:51;;;;;;;54.10;41.03;;;;;;;5.84;66.36;102800.09;5046981;28;20028;-64
2022/03/24 00:14:17;;;;;;;54.35;40.33;;;;;;;5.80;66.23;102804.28;5062139;28;20033;-65
2022/03/24 00:16:42;;;;;;;54.38;40.95;;;;;;;5.73;66.11;102807.38;5063986;28;20013;-65
2022/03/24 00:19:08;;;;;;;55.35;40.72;;;;;;;5.81;66.81;102795.59;5063475;28;20618;-65
2022/03/24 00:21:33;;;;;;;55.70;41.80;;;;;;;5.58;66.78;102803.09;5062137;28;20067;-65
2022/03/24 00:23:58;;;;;;;51.30;40.75;;;;;;;5.49;67.68;102797.34;5064717;28;20028;-65
2022/03/24 00:26:24;;;;;;;54.22;41.78;;;;;;;5.49;68.00;102797.34;5061271;28;20025;-65
2022/03/24 00:28:49;;;;;;;54.38;41.08;;;;;;;5.47;68.06;102793.69;5064230;28;20076;-64
2022/03/24 00:31:14;;;;;;;54.10;42.05;;;;;;;5.29;68.96;102793.56;5062295;28;20071;-64
2022/03/24 00:33:40;;;;;;;52.65;41.42;;;;;;;5.31;69.56;102796.28;5063211;28;20029;-64
2022/03/24 00:36:05;;;;;;;50.42;39.92;;;;;;;5.31;69.70;102796.28;5063969;28;20479;-64
2022/03/24 00:38:31;;;;;;;50.85;38.78;;;;;;;5.32;70.14;102792.84;5061535;28;20025;-64
2022/03/24 00:40:57;;;;;;;53.10;39.60;;;;;;;5.18;70.23;102787.69;5064469;28;20016;-63
2022/03/24 00:43:23;;;;;;;53.70;40.13;;;;;;;5.22;70.78;102792.31;5061391;28;20025;-63
2022/03/24 00:45:48;;;;;;;51.72;39.33;;;;;;;5.19;70.85;102786.00;5063924;28;20383;-64
2022/03/24 00:48:14;;;;;;;51.53;37.40;;;;;;;5.08;71.72;102787.97;5062360;28;20561;-63
2022/03/24 00:50:39;;;;;;;50.47;37.58;;;;;;;5.13;72.13;102789.16;5062844;28;20056;-63
2022/03/24 00:53:05;;;;;;;51.13;37.38;;;;;;;5.15;72.32;102779.66;5063345;28;20114;-63
2022/03/24 00:55:30;;;;;;;47.38;35.47;;;;;;;5.14;73.55;102783.13;5061249;28;20025;-64
2022/03/24 00:57:56;;;;;;;47.92;36.35;;;;;;;5.11;73.26;102777.69;5064741;28;20025;-63
2022/03/24 01:00:25;;;;;;;48.40;35.00;;;;;;;5.09;73.63;102784.56;5061155;28;20032;-64
2022/03/24 01:02:52;;;;;;;49.97;37.35;;;;;;;5.01;75.67;102785.81;5063773;28;20460;-63
2022/03/24 01:05:19;;;;;;;50.92;38.80;;;;;;;4.94;76.82;102783.69;5061710;28;20021;-63
2022/03/24 01:07:46;;;;;;;53.38;39.42;;;;;;;5.13;75.82;102780.41;5063369;28;20357;-64
2022/03/24 01:10:15;;;;;;;53.17;38.88;;;;;;;5.07;75.61;102771.38;5062384;28;20029;-64
2022/03/24 01:12:41;;;;;;;48.90;36.80;;;;;;;5.04;74.70;102778.16;5062559;28;20468;-66
2022/03/24 01:15:09;;;;;;;50.33;36.70;;;;;;;5.01;74.48;102770.09;5063178;28;20328;-66
2022/03/24 01:17:36;;;;;;;51.05;39.28;;;;;;;4.84;74.79;102771.75;5061728;28;20021;-65
2022/03/24 01:20:02;;;;;;;52.30;37.75;;;;;;;4.56;76.33;102777.06;5064071;28;20044;-66
2022/03/24 01:22:27;;;;;;;50.72;38.10;;;;;;;4.21;78.60;102781.06;5060625;28;20464;-66
2022/03/24 01:24:52;;;;;;;49.45;37.42;;;;;;;4.12;79.79;102769.25;5063847;28;20425;-65
2022/03/24 01:27:18;;;;;;;50.75;36.60;;;;;;;4.22;79.79;102778.53;5061430;28;20092;-67
2022/03/24 01:29:44;;;;;;;51.28;38.03;;;;;;;4.49;80.48;102773.19;5062595;28;20131;-66
2022/03/24 01:32:11;;;;;;;53.60;37.25;;;;;;;4.61;78.89;102767.78;5062490;28;20456;-65
2022/03/24 01:34:38;;;;;;;49.05;35.22;;;;;;;4.61;78.30;102762.53;5061961;28;20029;-66
2022/03/24 01:37:05;;;;;;;48.40;35.83;;;;;;;4.54;77.76;102766.50;5063120;28;20059;-67
2022/03/24 01:39:32;;;;;;;49.75;36.67;;;;;;;4.56;77.99;102758.72;5060785;28;20552;-66
2022/03/24 01:41:57;;;;;;;49.70;36.75;;;;;;;4.54;78.36;102756.94;5064256;28;20106;-66
2022/03/24 01:44:23;;;;;;;51.45;38.13;;;;;;;4.44;79.08;102754.59;5060361;28;20139;-66
2022/03/24 01:46:56;;;;;;;48.35;35.10;;;;;;;4.26;77.71;102756.97;5063394;28;20078;-65
2022/03/24 01:49:22;;;;;;;50.72;36.20;;;;;;;4.15;78.82;102761.56;5061758;28;20211;-66
2022/03/24 01:51:47;;;;;;;53.85;36.63;;;;;;;4.15;79.87;102751.09;5067231;28;20100;-66
2022/03/24 01:54:13;;;;;;;50.47;37.03;;;;;;;4.28;80.04;102749.22;5047731;28;20536;-66
2022/03/24 01:56:40;;;;;;;50.97;38.30;;;;;;;4.32;80.67;102748.59;5065694;28;20024;-63
2022/03/24 01:59:07;;;;;;;53.55;38.45;;;;;;;4.33;79.96;102748.69;5066601;28;20020;-64
2022/03/24 02:01:37;;;;;;;50.08;37.65;;;;;;;4.19;79.99;102750.50;5064645;28;20468;-63
2022/03/24 02:04:04;;;;;;;52.08;38.10;;;;;;;4.09;80.24;102739.34;5067320;28;20037;-63
2022/03/24 02:06:33;;;;;;;50.92;37.65;;;;;;;4.07;81.19;102744.47;5064137;28;20128;-63
2022/03/24 02:09:00;;;;;;;53.80;38.42;;;;;;;3.99;82.02;102740.47;5067504;28;20066;-64
2022/03/24 02:11:27;;;;;;;52.95;38.97;;;;;;;4.10;82.18;102743.78;5063825;28;20025;-64
2022/03/24 02:13:54;;;;;;;51.15;38.03;;;;;;;3.86;82.27;102743.16;5067065;28;20085;-64
2022/03/24 02:16:20;;;;;;;49.05;36.20;;;;;;;3.71;85.63;102733.53;5064243;28;20036;-63
2022/03/24 02:18:46;;;;;;;53.33;37.95;;;;;;;3.42;88.82;102742.16;5066267;28;20025;-63
2022/03/24 02:21:15;;;;;;;52.78;39.13;;;;;;;3.69;89.52;102748.25;5065211;28;20024;-63
2022/03/24 02:23:43;;;;;;;53.38;38.97;;;;;;;3.72;88.57;102743.22;5065110;28;20025;-64
2022/03/24 02:26:09;;;;;;;52.95;37.78;;;;;;;3.67;87.65;102735.09;5065769;28;20509;-64
2022/03/24 02:28:35;;;;;;;53.53;38.28;;;;;;;3.75;88.16;102742.50;5064341;28;20045;-64
2022/03/24 02:31:00;;;;;;;51.30;37.35;;;;;;;3.75;87.00;102732.03;5066808;28;20487;-63
2022/03/24 02:33:26;;;;;;;47.88;34.92;;;;;;;3.82;86.72;102745.59;5063831;28;20365;-63
2022/03/24 02:35:51;;;;;;;52.30;36.95;;;;;;;3.73;86.63;102738.88;5066472;28;20383;-63
2022/03/24 02:38:19;;;;;;;48.30;36.15;;;;;;;3.70;86.58;102734.38;5064299;28;20036;-63
2022/03/24 02:40:46;;;;;;;54.03;37.78;;;;;;;3.73;86.22;102739.78;5065646;28;20050;-63
2022/03/24 02:43:11;;;;;;;52.75;36.15;;;;;;;3.65;86.54;102744.53;5064934;28;20465;-64
2022/03/24 02:45:37;;;;;;;49.10;36.03;;;;;;;3.64;87.29;102739.19;5064409;28;20086;-63
2022/03/24 02:48:04;;;;;;;51.00;36.95;;;;;;;3.60;87.27;102745.06;5066658;28;20032;-65
2022/03/24 02:50:29;;;;;;;51.15;36.20;;;;;;;3.52;87.23;102747.19;5063252;28;20021;-63
2022/03/24 02:52:55;;;;;;;56.90;39.63;;;;;;;3.41;89.04;102741.28;5066890;28;20614;-66
2022/03/24 02:55:20;;;;;;;54.53;38.53;;;;;;;3.47;88.83;102741.66;5063697;28;20079;-64
2022/03/24 02:57:45;;;;;;;50.00;36.75;;;;;;;3.36;88.96;102734.84;5065292;28;20021;-65
2022/03/24 03:00:11;;;;;;;51.38;36.55;;;;;;;3.14;89.30;102740.41;5064612;28;20036;-65
2022/03/24 03:02:37;;;;;;;54.47;38.55;;;;;;;3.11;91.45;102733.25;5063033;28;20070;-64
2022/03/24 03:05:03;;;;;;;54.28;36.42;;;;;;;3.16;92.03;102741.41;5066069;28;20040;-66
2022/03/24 03:07:28;;;;;;;56.47;39.30;;;;;;;3.17;92.75;102744.94;5063138;28;20460;-64
2022/03/24 03:09:54;;;;;;;54.47;37.53;;;;;;;3.19;92.23;102748.53;5066328;28;20430;-64
2022/03/24 03:12:20;;;;;;;52.83;36.85;;;;;;;3.20;92.17;102743.41;5063539;28;20061;-65
2022/03/24 03:14:49;;;;;;;52.97;36.78;;;;;;;3.11;91.84;102745.44;5065381;28;20534;-65
2022/03/24 03:17:15;;;;;;;53.70;38.95;;;;;;;3.02;91.93;102740.50;5064295;28;20033;-65
2022/03/24 03:19:43;;;;;;;57.83;38.70;;;;;;;3.10;91.47;102744.53;5064220;28;20032;-63
2022/03/24 03:22:10;;;;;;;51.92;38.10;;;;;;;3.04;91.80;102738.00;5064721;28;20029;-64
2022/03/24 03:24:36;;;;;;;54.20;37.58;;;;;;;3.20;92.40;102734.66;5063385;28;20492;-64
2022/03/24 03:27:01;;;;;;;54.33;39.22;;;;;;;3.03;91.83;102742.31;5065989;28;20067;-65
2022/03/24 03:29:27;;;;;;;52.95;36.92;;;;;;;3.11;92.03;102746.31;5062608;28;20037;-65
2022/03/24 03:31:53;;;;;;;54.63;38.13;;;;;;;2.99;92.36;102744.66;5065806;28;20052;-65
2022/03/24 03:34:21;;;;;;;55.95;40.63;;;;;;;2.93;93.56;102740.81;5063409;28;20447;-65
2022/03/24 03:36:47;;;;;;;54.85;39.63;;;;;;;2.88;93.60;102736.09;5064975;28;20035;-64
2022/03/24 03:39:12;;;;;;;53.80;38.30;;;;;;;2.74;93.89;102741.31;5064243;28;20519;-65
2022/03/24 03:41:39;;;;;;;55.22;39.17;;;;;;;2.84;93.86;102747.13;5063250;28;20025;-64
2022/03/24 03:44:05;;;;;;;54.90;39.65;;;;;;;2.54;97.24;102744.28;5065232;28;20028;-64
2022/03/24 03:46:31;;;;;;;55.92;40.05;;;;;;;2.61;97.99;102742.19;5062258;28;20029;-64
2022/03/24 03:48:56;;;;;;;59.63;40.90;;;;;;;2.62;99.10;102743.06;5065488;28;20119;-64
2022/03/24 03:51:22;;;;;;;56.85;41.42;;;;;;;2.69;99.71;102734.84;5062582;28;20049;-63
2022/03/24 03:53:47;;;;;;;53.75;39.10;;;;;;;2.55;99.55;102740.84;5064514;28;20086;-65
2022/03/24 03:56:12;;;;;;;57.70;39.95;;;;;;;2.47;99.80;102737.75;5063634;28;20016;-64
2022/03/24 03:58:39;;;;;;;60.03;42.15;;;;;;;2.47;100.00;102742.06;5063330;28;20097;-64
2022/03/24 04:01:06;;;;;;;57.13;39.83;;;;;;;2.45;100.00;102744.56;5064884;28;20097;-64
2022/03/24 04:03:35;;;;;;;61.10;43.75;;;;;;;2.51;100.00;102739.75;5062022;28;20029;-63
2022/03/24 04:06:04;;;;;;;55.00;39.78;;;;;;;2.30;100.00;102744.44;5065269;28;20047;-64
2022/03/24 04:08:31;;;;;;;58.92;40.63;;;;;;;2.27;100.00;102744.19;5061691;28;20171;-64
2022/03/24 04:10:57;;;;;;;58.22;40.50;;;;;;;2.21;100.00;102744.72;5065230;28;20025;-64
2022/03/24 04:13:23;;;;;;;56.95;40.08;;;;;;;2.13;100.00;102745.00;5061707;28;20029;-63
2022/03/24 04:15:50;;;;;;;56.78;41.00;;;;;;;2.09;100.00;102743.84;5064119;28;20032;-64
2022/03/24 04:18:17;;;;;;;56.63;41.35;;;;;;;2.04;100.00;102740.00;5062869;28;20024;-66
2022/03/24 04:20:43;;;;;;;58.70;42.78;;;;;;;1.91;100.00;102743.50;5063365;28;20472;-64
2022/03/24 04:23:09;;;;;;;58.45;42.80;;;;;;;1.90;100.00;102746.88;5063852;28;20024;-66
2022/03/24 04:25:35;;;;;;;57.28;41.28;;;;;;;1.88;100.00;102749.38;5061893;28;20021;-65
2022/03/24 04:28:02;;;;;;;59.45;43.58;;;;;;;1.86;100.00;102750.97;5064779;28;20024;-65
2022/03/24 04:30:27;;;;;;;59.40;43.00;;;;;;;1.81;100.00;102747.16;5061201;28;20076;-66
2022/03/24 04:32:53;;;;;;;61.75;42.05;;;;;;;1.76;100.00;102750.22;5064683;28;20471;-65
2022/03/24 04:35:19;;;;;;;58.70;43.80;;;;;;;1.80;100.00;102747.03;5062195;28;20422;-65
2022/03/24 04:37:46;;;;;;;58.15;43.25;;;;;;;1.74;100.00;102739.69;5063193;28;20035;-66
2022/03/24 04:40:13;;;;;;;62.08;42.40;;;;;;;1.80;100.00;102742.72;5063029;28;20024;-66
2022/03/24 04:42:43;;;;;;;58.08;42.75;;;;;;;1.83;100.00;102744.66;5062306;28;20032;-66
2022/03/24 04:45:09;;;;;;;57.72;41.75;;;;;;;1.93;100.00;102736.66;5063455;28;20494;-65
2022/03/24 04:47:35;;;;;;;57.47;40.38;;;;;;;1.96;100.00;102743.81;5061588;28;20065;-63
2022/03/24 04:50:00;;;;;;;59.35;41.97;;;;;;;1.96;100.00;102747.31;5064579;28;20368;-65
2022/03/24 04:52:26;;;;;;;56.22;41.45;;;;;;;1.88;100.00;102757.22;5060936;28;20434;-66
2022/03/24 04:54:51;;;;;;;55.28;41.22;;;;;;;1.85;100.00;102743.03;5063805;28;20020;-65
2022/03/24 04:57:17;;;;;;;57.10;41.75;;;;;;;1.81;100.00;102751.47;5062321;28;20031;-65
2022/03/24 04:59:43;;;;;;;57.45;41.00;;;;;;;1.87;100.00;102744.06;5062460;28;20025;-66
2022/03/24 05:02:12;;;;;;;56.28;41.00;;;;;;;1.84;100.00;102743.84;5063311;28;20138;-67
2022/03/24 05:04:37;;;;;;;55.58;41.90;;;;;;;1.71;100.00;102742.97;5061970;28;20068;-66
2022/03/24 05:07:03;;;;;;;56.33;40.92;;;;;;;1.57;100.00;102748.91;5064165;28;20074;-66
2022/03/24 05:09:29;;;;;;;58.10;41.83;;;;;;;1.58;100.00;102748.13;5060707;28;20029;-66
2022/03/24 05:11:54;;;;;;;57.72;42.97;;;;;;;1.59;100.00;102749.00;5063994;28;20040;-66
2022/03/24 05:14:19;;;;;;;60.10;42.42;;;;;;;1.48;100.00;102754.38;5061478;28;20029;-66
2022/03/24 05:16:46;;;;;;;58.20;41.95;;;;;;;1.51;100.00;102751.09;5062672;28;20029;-67
2022/03/24 05:19:13;;;;;;;56.63;41.03;;;;;;;1.42;100.00;102755.66;5062885;28;20174;-67
2022/03/24 05:21:38;;;;;;;55.97;40.90;;;;;;;1.46;100.00;102755.09;5061901;28;20025;-66
2022/03/24 05:24:04;;;;;;;58.45;41.97;;;;;;;1.39;100.00;102754.63;5063806;28;20037;-66
2022/03/24 05:26:29;;;;;;;57.88;41.42;;;;;;;1.32;100.00;102760.19;5064834;28;20392;-66
2022/03/24 05:28:55;;;;;;;59.05;42.05;;;;;;;1.36;100.00;102757.00;5067851;28;20106;-66
2022/03/24 05:31:23;;;;;;;58.65;42.10;;;;;;;1.38;100.00;102763.25;5065767;28;20036;-67
2022/03/24 05:33:50;;;;;;;57.95;41.28;;;;;;;1.46;100.00;102769.00;5067362;28;20118;-67
2022/03/24 05:36:15;;;;;;;65.10;45.55;;;;;;;1.46;100.00;102769.00;5066255;28;20021;-66
2022/03/24 05:38:41;;;;;;;60.88;42.63;;;;;;;1.47;100.00;102764.69;5066336;28;20508;-66
2022/03/24 05:41:06;;;;;;;60.40;42.15;;;;;;;1.42;100.00;102766.06;5067035;28;20027;-65
2022/03/24 05:43:32;;;;;;;64.55;44.03;;;;;;;1.44;100.00;102770.59;5064643;28;20468;-66
2022/03/24 05:45:57;;;;;;;60.92;43.05;;;;;;;1.44;100.00;102764.47;5067936;28;20031;-67
2022/03/24 05:48:23;;;;;;;61.95;42.95;;;;;;;1.42;100.00;102764.38;5064622;28;20033;-66
2022/03/24 05:50:49;;;;;;;65.45;44.17;;;;;;;1.44;100.00;102772.28;5067046;28;20021;-66
2022/03/24 05:53:14;;;;;;;63.30;43.75;;;;;;;1.46;100.00;102774.22;5066358;28;20102;-66
2022/03/24 05:55:40;;;;;;;66.97;44.42;;;;;;;1.35;100.00;102776.03;5047483;28;20043;-66
2022/03/24 05:58:06;;;;;;;65.00;44.50;;;;;;;1.45;100.00;102771.50;5066972;28;20027;-66
2022/03/24 06:00:33;;;;;;;64.85;44.15;;;;;;;1.45;100.00;102774.13;5064395;28;20032;-66
2022/03/24 06:03:00;;;;;;;63.60;44.53;;;;;;;1.43;100.00;102767.88;5067602;28;20089;-66
2022/03/24 06:05:25;;;;;;;63.20;44.10;;;;;;;1.45;100.00;102780.22;5064255;28;20032;-66
2022/03/24 06:07:52;;;;;;;62.28;44.53;;;;;;;1.55;100.00;102777.47;5066956;28;20443;-66
2022/03/24 06:10:17;;;;;;;63.53;44.38;;;;;;;1.51;100.00;102778.06;5062706;28;20094;-65
2022/03/24 06:12:43;;;;;;;63.88;43.67;;;;;;;1.56;100.00;102787.13;5057773;28;20036;-65
2022/03/24 06:15:09;;;;;;;62.50;43.67;;;;;;;1.62;100.00;102788.38;5055574;28;20037;-65
2022/03/24 06:17:35;;;;;;;62.53;42.15;;;;;;;1.72;100.00;102786.53;5055798;28;20112;-65
2022/03/24 06:20:04;;;;;;;63.30;43.67;;;;;;;1.69;100.00;102783.69;5061093;28;20375;-65
2022/03/24 06:22:31;;;;;;;63.58;44.80;;;;;;;1.63;100.00;102782.34;5055541;28;20361;-65
2022/03/24 06:24:57;;;;;;;65.95;44.70;;;;;;;1.78;100.00;102783.44;5057254;28;20036;-66
2022/03/24 06:27:22;;;;;;;69.65;47.08;;;;;;;1.89;100.00;102786.81;5057215;28;20040;-65
2022/03/24 06:29:47;;;;;;;70.80;46.65;;;;;;;2.03;100.00;102788.69;5054356;28;20072;-64
2022/03/24 06:32:13;;;;;;;68.78;44.97;;;;;;;2.15;100.00;102790.34;5056126;28;20460;-66
2022/03/24 06:34:39;;;;;;;69.45;46.05;;;;;;;2.24;100.00;102786.69;5034387;28;20049;-66
2022/03/24 06:37:04;;;;;;;76.10;48.72;;;;;;;2.30;100.00;102788.81;5057880;28;20039;-65
2022/03/24 06:39:30;;;;;;;72.75;49.78;;;;;;;2.39;100.00;102789.44;5054983;28;20033;-65
2022/03/24 06:41:55;;;;;;;68.50;49.40;;;;;;;2.50;100.00;102789.25;5055674;28;20112;-66
2022/03/24 06:44:21;;;;;;;72.32;49.70;;;;;;;2.66;100.00;102789.50;5056558;28;20024;-65
2022/03/24 06:46:47;;;;;;;76.53;52.45;;;;;;;2.78;100.00;102787.72;5054801;28;20439;-65
2022/03/24 06:49:12;;;;;;;75.82;51.05;;;;;;;2.96;100.00;102792.38;5054941;28;20028;-68
2022/03/24 06:51:37;;;;;;;73.30;51.60;;;;;;;3.02;100.00;102798.00;5034272;28;20040;-66
2022/03/24 06:54:04;;;;;;;72.65;52.33;;;;;;;3.07;100.00;102795.69;5052033;28;20032;-67
2022/03/24 06:56:29;;;;;;;70.45;51.50;;;;;;;3.14;100.00;102792.66;5056061;28;20421;-67
2022/03/24 06:58:54;;;;;;;67.88;50.33;;;;;;;3.28;100.00;102793.59;5057757;28;20029;-67
2022/03/24 07:01:20;;;;;;;71.68;51.03;;;;;;;3.44;100.00;102792.88;5054676;28;20365;-67
2022/03/24 07:03:45;;;;;;;65.90;49.90;;;;;;;3.59;100.00;102795.56;5051008;28;20472;-68
2022/03/24 07:06:11;;;;;;;72.78;52.00;;;;;;;3.77;100.00;102799.34;5056151;28;20392;-67
2022/03/24 07:08:37;;;;;;;66.80;50.35;;;;;;;3.96;100.00;102790.94;5056479;28;20486;-67
2022/03/24 07:11:03;;;;;;;68.07;50.60;;;;;;;4.09;100.00;102795.25;5035997;28;20031;-66
2022/03/24 07:13:30;;;;;;;70.25;49.80;;;;;;;4.25;100.00;102802.31;5057793;28;20032;-66
2022/03/24 07:15:55;;;;;;;70.28;51.13;;;;;;;4.44;100.00;102801.72;5055065;28;20068;-67
2022/03/24 07:18:21;;;;;;;68.75;50.45;;;;;;;4.54;100.00;102801.47;5053186;28;20141;-67
2022/03/24 07:20:46;;;;;;;69.47;50.55;;;;;;;4.65;100.00;102802.09;5056914;28;20392;-68
2022/03/24 07:23:12;;;;;;;72.65;52.45;;;;;;;4.78;100.00;102795.88;5055170;28;20036;-68
2022/03/24 07:25:37;;;;;;;75.60;55.10;;;;;;;4.94;100.00;102802.94;5053544;28;20036;-68
2022/03/24 07:28:06;;;;;;;78.25;55.38;;;;;;;5.09;100.00;102805.53;5051293;28;20028;-68
2022/03/24 07:30:32;;;;;;;75.88;55.30;;;;;;;5.27;100.00;102804.78;5010812;28;20042;-67
2022/03/24 07:33:02;;;;;;;80.07;59.05;;;;;;;5.45;100.00;102799.69;5010138;28;20041;-67
2022/03/24 07:35:30;;;;;;;78.40;57.25;;;;;;;5.67;100.00;102800.06;5013314;28;20087;-68
2022/03/24 07:37:56;;;;;;;74.90;56.17;;;;;;;5.89;100.00;102804.78;5009489;28;20030;-66
2022/03/24 07:40:22;;;;;;;70.30;52.25;;;;;;;6.13;100.00;102793.84;5012548;28;20076;-67
2022/03/24 07:42:52;;;;;;;72.97;53.28;;;;;;;6.40;97.32;102807.53;5013136;28;20089;-65
2022/03/24 07:45:19;;;;;;;71.15;51.40;;;;;;;6.62;91.64;102812.19;5015244;28;20395;-65
2022/03/24 07:48:08;;;;;;;69.63;51.05;;;;;;;6.88;91.84;102807.38;5008464;28;20029;-65
2022/03/24 07:50:34;;;;;;;65.40;49.88;;;;;;;7.15;90.79;102806.97;5022832;28;20057;-65
2022/03/24 07:53:24;;;;;;;65.20;47.95;;;;;;;7.35;87.43;102812.28;5025141;28;20369;-66
2022/03/24 07:55:50;;;;;;;63.25;48.05;;;;;;;7.62;83.07;102812.72;4953580;29;20039;-65
2022/03/24 07:58:17;;;;;;;62.55;48.13;;;;;;;7.87;80.07;102813.91;4953522;29;20058;-66
2022/03/24 08:00:43;;;;;;;63.45;48.08;;;;;;;8.08;78.27;102816.59;4953629;29;20094;-65
2022/03/24 08:03:11;;;;;;;66.03;48.40;;;;;;;8.28;78.00;102817.53;4953612;29;20062;-65
2022/03/24 08:05:36;;;;;;;60.88;47.15;;;;;;;8.38;76.82;102820.63;4953457;29;20125;-65
2022/03/24 08:08:04;;;;;;;64.30;48.30;;;;;;;8.53;75.86;102824.81;4953638;29;20138;-66
2022/03/24 08:10:29;;;;;;;62.70;48.95;;;;;;;8.73;74.68;102818.69;4953149;29;20046;-66
2022/03/24 08:12:54;;;;;;;66.10;48.75;;;;;;;8.92;73.54;102822.13;4953311;29;20035;-66
2022/03/24 08:15:20;;;;;;;59.95;46.92;;;;;;;9.13;72.54;102818.56;4953583;29;20038;-66
2022/03/24 08:17:45;;;;;;;60.20;48.63;;;;;;;9.33;72.38;102815.00;4953238;29;20035;-67
2022/03/24 08:20:11;;;;;;;60.72;48.03;;;;;;;9.55;71.09;102815.88;4937137;29;20117;-67
2022/03/24 08:22:36;;;;;;;59.03;47.22;;;;;;;9.74;70.28;102826.34;4953131;29;20037;-65
2022/03/24 08:25:04;;;;;;;58.97;46.22;;;;;;;9.97;70.48;102823.69;4952928;29;20076;-67
2022/03/24 08:27:29;;;;;;;60.67;46.88;;;;;;;10.34;68.25;102822.47;4952894;29;20101;-67
2022/03/24 08:29:55;;;;;;;57.22;44.05;;;;;;;10.66;63.01;102828.03;4963296;28;20047;-66
2022/03/24 08:32:20;;;;;;;56.15;43.70;;;;;;;11.16;60.31;102826.22;4979211;28;20038;-65
2022/03/24 08:34:45;;;;;;;57.75;42.50;;;;;;;11.52;54.03;102822.09;5004764;28;20080;-67
2022/03/24 08:37:10;;;;;;;56.08;41.03;;;;;;;11.82;54.21;102824.78;5002019;28;20027;-67
2022/03/24 08:39:36;;;;;;;51.88;40.58;;;;;;;12.12;51.56;102823.94;5004953;28;20045;-68
2022/03/24 08:42:03;;;;;;;52.30;40.80;;;;;;;12.51;50.05;102828.59;5002537;28;20470;-68
2022/03/24 08:44:28;;;;;;;53.45;42.50;;;;;;;12.72;50.09;102828.25;5004012;28;20030;-66
2022/03/24 08:46:53;;;;;;;52.58;41.03;;;;;;;12.96;49.84;102823.56;5003605;28;20400;-65
2022/03/24 08:49:19;;;;;;;50.05;39.55;;;;;;;12.95;49.38;102825.31;5002973;28;20034;-67
2022/03/24 08:51:45;;;;;;;50.60;39.17;;;;;;;13.08;49.82;102819.47;5004600;28;20026;-67
2022/03/24 08:54:11;;;;;;;48.55;38.75;;;;;;;13.48;48.00;102821.34;5001429;28;20034;-68
2022/03/24 08:56:36;;;;;;;49.53;39.35;;;;;;;14.01;45.83;102824.31;5004778;28;20026;-67
2022/03/24 08:59:02;;;;;;;52.83;39.50;;;;;;;14.77;43.59;102832.06;5002206;28;20034;-68
2022/03/24 09:01:28;;;;;;;50.28;39.80;;;;;;;15.11;42.36;102831.75;5004081;28;20077;-68
2022/03/24 09:03:54;;;;;;;46.92;37.72;;;;;;;15.47;40.85;102825.25;5004339;28;20025;-68
2022/03/24 09:06:19;;;;;;;47.13;38.13;;;;;;;15.64;39.02;102820.16;5001725;28;20029;-67
2022/03/24 09:08:45;;;;;;;46.25;37.83;;;;;;;15.87;38.20;102836.50;5004672;28;20021;-67
2022/03/24 09:11:10;;;;;;;45.38;36.10;;;;;;;16.23;35.76;102837.88;5001885;28;20038;-67
2022/03/24 09:13:36;;;;;;;47.22;36.25;;;;;;;16.86;35.59;102840.34;5003388;28;20030;-68
2022/03/24 09:16:01;;;;;;;44.70;34.70;;;;;;;17.64;34.09;102837.44;5003143;28;20033;-68
2022/03/24 09:18:27;;;;;;;46.03;36.03;;;;;;;18.06;33.33;102835.91;5000554;28;20026;-68
2022/03/24 09:20:52;;;;;;;47.45;36.80;;;;;;;18.61;32.22;102834.31;5003195;28;20109;-68
2022/03/24 09:23:18;;;;;;;45.10;35.72;;;;;;;19.19;31.41;102843.34;5002942;28;20030;-68
2022/03/24 09:25:43;;;;;;;43.22;34.25;;;;;;;19.47;28.71;102845.13;5001993;28;20028;-68
2022/03/24 09:28:10;;;;;;;41.53;31.58;;;;;;;19.87;28.32;102845.97;5003635;28;20032;-68
2022/03/24 09:30:36;;;;;;;40.15;30.58;;;;;;;20.17;26.26;102847.66;5049643;28;20377;-68
2022/03/24 09:33:01;;;;;;;40.10;30.15;;;;;;;20.49;25.23;102847.50;5056387;28;20023;-66
2022/03/24 09:35:28;;;;;;;40.55;29.90;;;;;;;20.80;24.72;102843.75;5063438;28;20027;-65
2022/03/24 09:37:53;;;;;;;40.05;30.15;;;;;;;20.98;24.42;102840.03;5061675;28;20020;-65
2022/03/24 09:40:19;;;;;;;42.97;32.55;;;;;;;21.13;23.50;102837.22;5062073;28;20087;-66
2022/03/24 09:42:46;;;;;;;40.17;32.58;;;;;;;21.46;22.07;102845.00;5062512;28;20481;-66
2022/03/24 09:45:13;;;;;;;39.90;30.38;;;;;;;21.96;22.82;102840.00;5061654;28;20033;-65
2022/03/24 09:47:39;;;;;;;38.70;29.83;;;;;;;22.39;21.93;102843.06;5063818;28;20073;-66
2022/03/24 09:50:05;;;;;;;39.22;30.40;;;;;;;22.95;21.64;102845.84;5060339;28;20032;-65
2022/03/24 09:52:31;;;;;;;40.25;30.35;;;;;;;23.15;20.20;102836.53;5064029;28;20029;-66
2022/03/24 09:54:56;;;;;;;40.53;31.58;;;;;;;23.50;20.19;102837.72;5061031;28;20594;-66
2022/03/24 09:57:22;;;;;;;34.97;26.25;;;;;;;23.75;19.08;102843.56;5062472;28;20040;-68
2022/03/24 09:59:48;;;;;;;42.38;27.30;;;;;;;24.07;19.00;102841.13;5048718;28;20119;-67
2022/03/24 10:02:16;;;;;;;36.92;28.88;;;;;;;24.24;19.96;102835.38;5051021;28;20460;-67
2022/03/24 10:04:45;;;;;;;42.28;29.85;;;;;;;24.17;19.98;102846.31;5056492;28;20037;-67
2022/03/24 10:07:11;;;;;;;38.88;29.45;;;;;;;24.50;19.39;102848.31;5053131;28;20539;-66
2022/03/24 10:09:36;;;;;;;34.42;26.20;;;;;;;24.70;18.27;102840.66;5050986;28;20104;-67
2022/03/24 10:12:03;;;;;;;34.85;25.27;;;;;;;25.05;17.94;102836.19;5052578;28;20120;-66
2022/03/24 10:14:29;;;;;;;35.97;25.15;;;;;;;25.27;17.96;102830.22;5056697;28;20107;-66
2022/03/24 10:16:54;;;;;;;34.63;25.40;;;;;;;25.23;17.27;102836.63;5055283;28;20548;-67
2022/03/24 10:19:19;;;;;;;33.03;24.58;;;;;;;25.31;17.43;102831.97;5056751;28;20427;-67
2022/03/24 10:21:49;;;;;;;34.78;24.23;;;;;;;25.49;17.12;102825.16;5057322;28;20483;-67
2022/03/24 10:24:21;;;;;;;34.50;25.75;;;;;;;26.06;16.75;102826.25;5052135;28;20067;-67
2022/03/24 10:26:48;;;;;;;34.58;26.20;;;;;;;26.30;16.59;102823.75;5059135;28;20193;-68
2022/03/24 10:29:20;;;;;;;34.20;24.92;;;;;;;26.66;16.59;102826.19;5059421;28;20043;-68
2022/03/24 10:31:55;;;;;;;33.63;23.88;;;;;;;27.06;16.96;102829.47;5064283;28;20045;-68
2022/03/24 10:34:37;;;;;;;33.42;24.33;;;;;;;27.36;16.54;102826.66;5059749;28;20025;-65
2022/03/24 10:37:05;;;;;;;33.17;24.77;;;;;;;27.06;16.13;102821.31;5062526;28;20025;-64
2022/03/24 10:39:32;;;;;;;32.63;23.63;;;;;;;26.97;15.98;102819.81;5065713;28;20020;-67
2022/03/24 10:42:18;;;;;;;32.15;22.20;;;;;;;28.01;16.21;102830.63;5064122;28;20025;-67
2022/03/24 10:45:22;;;;;;;31.17;22.50;;;;;;;28.77;15.49;102824.91;5064037;28;20028;-68
2022/03/24 10:47:47;;;;;;;33.22;21.52;;;;;;;29.21;13.63;102817.59;5066505;28;20020;-68
2022/03/24 10:50:40;;;;;;;31.17;20.38;;;;;;;29.72;14.61;102819.88;5064283;28;20425;-68
2022/03/24 10:53:09;;;;;;;31.70;22.63;;;;;;;29.93;13.51;102822.59;5063213;28;20071;-67
2022/03/24 10:55:44;;;;;;;33.67;22.38;;;;;;;30.15;13.82;102815.19;5065371;28;20024;-68
2022/03/24 10:58:39;;;;;;;30.85;21.55;;;;;;;30.24;14.46;102816.59;5065163;28;20496;-68
2022/03/24 11:01:17;;;;;;;31.20;20.75;;;;;;;30.30;13.41;102820.84;5043654;28;20083;-68
2022/03/24 11:03:44;;;;;;;30.73;19.75;;;;;;;30.59;11.86;102814.88;5063860;28;20032;-68
2022/03/24 11:06:15;;;;;;;31.73;20.58;;;;;;;30.88;12.62;102815.25;5064974;28;20366;-66
2022/03/24 11:08:43;;;;;;;30.38;20.83;;;;;;;31.51;11.74;102816.53;5064171;28;20025;-66
2022/03/24 11:11:12;;;;;;;30.23;19.48;;;;;;;31.17;12.52;102810.16;5064847;28;20029;-68